sensor_id;sensor_type;location;lat;lon;timestamp;temperature;humidity
23532;DHT22;11943;52.270;20.978;2022-08-02T00:00:50;19.80;99.90
23532;DHT22;11943;52.270;20.978;2022-08-02T00:03:15;19.80;99.90
23532;DHT22;11943;52.270;20.978;2022-08-02T00:05:41;19.80;99.90
23532;DHT22;11943;52.270;20.978;2022-08-02T00:08:06;19.80;99.90
23532;DHT22;11943;52.270;20.978;2022-08-02T00:10:32;19.80;99.90
23532;DHT22;11943;52.270;20.978;2022-08-02T00:12:57;19.80;99.90
23532;DHT22;11943;52.270;20.978;2022-08-02T00:15:23;19.70;99.90
23532;DHT22;11943;52.270;20.978;2022-08-02T00:17:48;19.70;99.90
23532;DHT22;11943;52.270;20.978;2022-08-02T00:20:14;19.70;99.90
23532;DHT22;11943;52.270;20.978;2022-08-02T00:22:39;19.60;99.90
23532;DHT22;11943;52.270;20.978;2022-08-02T00:25:05;19.60;99.90
23532;DHT22;11943;52.270;20.978;2022-08-02T00:27:31;19.60;99.90
23532;DHT22;11943;52.270;20.978;2022-08-02T00:29:56;19.50;99.90
23532;DHT22;11943;52.270;20.978;2022-08-02T00:32:22;19.60;99.90
23532;DHT22;11943;52.270;20.978;2022-08-02T00:34:47;19.60;99.90
23532;DHT22;11943;52.270;20.978;2022-08-02T00:37:13;19.60;99.90
23532;DHT22;11943;52.270;20.978;2022-08-02T00:39:39;19.10;99.90
23532;DHT22;11943;52.270;20.978;2022-08-02T00:42:04;19.60;99.90
23532;DHT22;11943;52.270;20.978;2022-08-02T00:44:30;19.50;99.90
23532;DHT22;11943;52.270;20.978;2022-08-02T00:46:55;19.50;99.90
23532;DHT22;11943;52.270;20.978;2022-08-02T00:49:21;19.40;99.90
23532;DHT22;11943;52.270;20.978;2022-08-02T00:51:46;19.40;99.90
23532;DHT22;11943;52.270;20.978;2022-08-02T00:54:12;19.40;99.90
23532;DHT22;11943;52.270;20.978;2022-08-02T00:56:39;19.30;99.90
23532;DHT22;11943;52.270;20.978;2022-08-02T00:59:04;19.20;99.90
23532;DHT22;11943;52.270;20.978;2022-08-02T01:01:30;19.20;99.90
23532;DHT22;11943;52.270;20.978;2022-08-02T01:04:05;19.20;99.90
23532;DHT22;11943;52.270;20.978;2022-08-02T01:06:31;19.20;99.90
23532;DHT22;11943;52.270;20.978;2022-08-02T01:08:57;19.20;99.90
23532;DHT22;11943;52.270;20.978;2022-08-02T01:11:23;19.20;99.90
23532;DHT22;11943;52.270;20.978;2022-08-02T01:13:49;19.20;99.90
23532;DHT22;11943;52.270;20.978;2022-08-02T01:16:15;19.30;99.90
23532;DHT22;11943;52.270;20.978;2022-08-02T01:18:44;19.20;99.90
23532;DHT22;11943;52.270;20.978;2022-08-02T01:21:29;19.20;99.90
23532;DHT22;11943;52.270;20.978;2022-08-02T01:31:49;19.20;99.90
23532;DHT22;11943;52.270;20.978;2022-08-02T01:34:20;19.20;99.90
23532;DHT22;11943;52.270;20.978;2022-08-02T01:36:58;19.20;99.90
23532;DHT22;11943;52.270;20.978;2022-08-02T01:39:25;19.20;99.90
23532;DHT22;11943;52.270;20.978;2022-08-02T01:41:51;19.20;99.90
23532;DHT22;11943;52.270;20.978;2022-08-02T01:44:17;19.20;99.90
23532;DHT22;11943;52.270;20.978;2022-08-02T01:46:44;19.20;99.90
23532;DHT22;11943;52.270;20.978;2022-08-02T01:49:11;19.20;99.90
23532;DHT22;11943;52.270;20.978;2022-08-02T01:51:39;19.30;99.90
23532;DHT22;11943;52.270;20.978;2022-08-02T01:54:24;19.20;99.90
23532;DHT22;11943;52.270;20.978;2022-08-02T01:56:51;19.20;99.90
23532;DHT22;11943;52.270;20.978;2022-08-02T01:59:19;19.20;99.90
23532;DHT22;11943;52.270;20.978;2022-08-02T02:01:46;19.20;99.90
23532;DHT22;11943;52.270;20.978;2022-08-02T02:04:13;19.20;99.90
23532;DHT22;11943;52.270;20.978;2022-08-02T02:06:40;19.20;99.90
23532;DHT22;11943;52.270;20.978;2022-08-02T02:09:07;19.20;99.90
23532;DHT22;11943;52.270;20.978;2022-08-02T02:11:32;19.20;99.90
23532;DHT22;11943;52.270;20.978;2022-08-02T02:13:59;19.20;99.90
23532;DHT22;11943;52.270;20.978;2022-08-02T02:16:25;19.10;99.90
23532;DHT22;11943;52.270;20.978;2022-08-02T02:18:51;19.10;99.90
23532;DHT22;11943;52.270;20.978;2022-08-02T02:21:17;19.10;99.90
23532;DHT22;11943;52.270;20.978;2022-08-02T02:23:43;19.00;99.90
23532;DHT22;11943;52.270;20.978;2022-08-02T02:26:09;19.00;99.90
23532;DHT22;11943;52.270;20.978;2022-08-02T02:28:35;18.90;99.90
23532;DHT22;11943;52.270;20.978;2022-08-02T02:31:05;18.90;99.90
23532;DHT22;11943;52.270;20.978;2022-08-02T02:33:32;18.90;99.90
23532;DHT22;11943;52.270;20.978;2022-08-02T02:35:58;18.80;99.90
23532;DHT22;11943;52.270;20.978;2022-08-02T02:38:25;18.70;99.90
23532;DHT22;11943;52.270;20.978;2022-08-02T02:40:51;18.70;99.90
23532;DHT22;11943;52.270;20.978;2022-08-02T02:43:17;18.70;99.90
23532;DHT22;11943;52.270;20.978;2022-08-02T02:45:44;18.60;99.90
23532;DHT22;11943;52.270;20.978;2022-08-02T02:48:10;18.60;99.90
23532;DHT22;11943;52.270;20.978;2022-08-02T02:50:36;18.40;99.90
23532;DHT22;11943;52.270;20.978;2022-08-02T02:53:02;18.40;99.90
23532;DHT22;11943;52.270;20.978;2022-08-02T02:55:29;18.30;99.90
23532;DHT22;11943;52.270;20.978;2022-08-02T02:57:55;18.30;99.90
23532;DHT22;11943;52.270;20.978;2022-08-02T03:00:21;18.20;99.90
23532;DHT22;11943;52.270;20.978;2022-08-02T03:03:06;18.20;99.90
23532;DHT22;11943;52.270;20.978;2022-08-02T03:05:33;18.30;99.90
23532;DHT22;11943;52.270;20.978;2022-08-02T03:07:59;18.20;99.90
23532;DHT22;11943;52.270;20.978;2022-08-02T03:10:24;18.20;99.90
23532;DHT22;11943;52.270;20.978;2022-08-02T03:12:51;18.20;99.90
23532;DHT22;11943;52.270;20.978;2022-08-02T03:15:16;18.10;99.90
23532;DHT22;11943;52.270;20.978;2022-08-02T03:17:43;18.10;99.90
23532;DHT22;11943;52.270;20.978;2022-08-02T03:20:10;18.10;99.90
23532;DHT22;11943;52.270;20.978;2022-08-02T03:22:35;18.10;99.90
23532;DHT22;11943;52.270;20.978;2022-08-02T03:25:01;18.00;99.90
23532;DHT22;11943;52.270;20.978;2022-08-02T03:27:26;18.10;99.90
23532;DHT22;11943;52.270;20.978;2022-08-02T03:29:51;18.10;99.90
23532;DHT22;11943;52.270;20.978;2022-08-02T03:32:17;18.10;99.90
23532;DHT22;11943;52.270;20.978;2022-08-02T03:34:43;18.10;99.90
23532;DHT22;11943;52.270;20.978;2022-08-02T03:37:08;18.10;99.90
23532;DHT22;11943;52.270;20.978;2022-08-02T03:39:34;18.10;99.90
23532;DHT22;11943;52.270;20.978;2022-08-02T03:41:59;18.20;99.90
23532;DHT22;11943;52.270;20.978;2022-08-02T03:44:25;18.20;99.90
23532;DHT22;11943;52.270;20.978;2022-08-02T03:46:50;18.20;99.90
23532;DHT22;11943;52.270;20.978;2022-08-02T03:49:17;18.20;99.90
23532;DHT22;11943;52.270;20.978;2022-08-02T03:51:43;18.20;99.90
23532;DHT22;11943;52.270;20.978;2022-08-02T03:54:09;18.30;99.90
23532;DHT22;11943;52.270;20.978;2022-08-02T03:56:35;18.20;99.90
23532;DHT22;11943;52.270;20.978;2022-08-02T03:59:07;18.30;99.90
23532;DHT22;11943;52.270;20.978;2022-08-02T04:01:33;18.30;99.90
23532;DHT22;11943;52.270;20.978;2022-08-02T04:03:58;18.40;99.90
23532;DHT22;11943;52.270;20.978;2022-08-02T04:06:24;18.40;99.90
23532;DHT22;11943;52.270;20.978;2022-08-02T04:08:49;18.40;99.90
23532;DHT22;11943;52.270;20.978;2022-08-02T04:11:17;18.50;99.90
23532;DHT22;11943;52.270;20.978;2022-08-02T04:13:58;18.50;99.90
23532;DHT22;11943;52.270;20.978;2022-08-02T04:16:33;18.50;99.90
23532;DHT22;11943;52.270;20.978;2022-08-02T04:19:02;18.60;99.90
23532;DHT22;11943;52.270;20.978;2022-08-02T04:21:30;18.60;99.90
23532;DHT22;11943;52.270;20.978;2022-08-02T04:23:56;18.70;99.90
23532;DHT22;11943;52.270;20.978;2022-08-02T04:26:22;18.80;99.90
23532;DHT22;11943;52.270;20.978;2022-08-02T04:28:48;18.80;99.90
23532;DHT22;11943;52.270;20.978;2022-08-02T04:31:15;18.80;99.90
23532;DHT22;11943;52.270;20.978;2022-08-02T04:33:41;18.90;99.90
23532;DHT22;11943;52.270;20.978;2022-08-02T04:36:07;18.90;99.90
23532;DHT22;11943;52.270;20.978;2022-08-02T04:38:32;19.00;99.90
23532;DHT22;11943;52.270;20.978;2022-08-02T04:40:58;19.00;99.90
23532;DHT22;11943;52.270;20.978;2022-08-02T04:43:23;19.10;99.90
23532;DHT22;11943;52.270;20.978;2022-08-02T04:45:50;19.10;99.90
23532;DHT22;11943;52.270;20.978;2022-08-02T04:48:16;19.20;99.90
23532;DHT22;11943;52.270;20.978;2022-08-02T04:50:41;19.20;99.90
23532;DHT22;11943;52.270;20.978;2022-08-02T04:53:07;19.20;99.90
23532;DHT22;11943;52.270;20.978;2022-08-02T04:55:32;19.30;99.90
23532;DHT22;11943;52.270;20.978;2022-08-02T04:57:58;19.30;99.90
23532;DHT22;11943;52.270;20.978;2022-08-02T05:00:24;19.30;99.90
23532;DHT22;11943;52.270;20.978;2022-08-02T05:02:49;19.30;99.90
23532;DHT22;11943;52.270;20.978;2022-08-02T05:05:16;19.40;99.90
23532;DHT22;11943;52.270;20.978;2022-08-02T05:07:42;19.40;99.90
23532;DHT22;11943;52.270;20.978;2022-08-02T05:10:08;19.40;99.90
23532;DHT22;11943;52.270;20.978;2022-08-02T05:12:33;19.50;99.90
23532;DHT22;11943;52.270;20.978;2022-08-02T05:14:59;19.60;99.90
23532;DHT22;11943;52.270;20.978;2022-08-02T05:17:24;19.80;99.90
23532;DHT22;11943;52.270;20.978;2022-08-02T05:19:50;20.00;99.90
23532;DHT22;11943;52.270;20.978;2022-08-02T05:22:16;20.30;99.90
23532;DHT22;11943;52.270;20.978;2022-08-02T05:24:41;20.60;99.90
23532;DHT22;11943;52.270;20.978;2022-08-02T05:27:07;20.80;99.90
23532;DHT22;11943;52.270;20.978;2022-08-02T05:29:35;21.10;99.90
23532;DHT22;11943;52.270;20.978;2022-08-02T05:32:00;21.20;99.90
23532;DHT22;11943;52.270;20.978;2022-08-02T05:34:25;21.30;99.90
23532;DHT22;11943;52.270;20.978;2022-08-02T05:36:51;21.30;99.90
23532;DHT22;11943;52.270;20.978;2022-08-02T05:39:16;21.40;99.90
23532;DHT22;11943;52.270;20.978;2022-08-02T05:41:42;21.50;99.90
23532;DHT22;11943;52.270;20.978;2022-08-02T05:44:07;21.80;99.90
23532;DHT22;11943;52.270;20.978;2022-08-02T05:46:33;22.00;99.90
23532;DHT22;11943;52.270;20.978;2022-08-02T05:48:59;22.60;99.90
23532;DHT22;11943;52.270;20.978;2022-08-02T05:51:28;22.90;99.90
23532;DHT22;11943;52.270;20.978;2022-08-02T05:59:03;24.00;93.90
23532;DHT22;11943;52.270;20.978;2022-08-02T06:01:32;24.20;91.30
23532;DHT22;11943;52.270;20.978;2022-08-02T06:03:58;24.80;91.30
23532;DHT22;11943;52.270;20.978;2022-08-02T06:06:24;25.00;87.80
23532;DHT22;11943;52.270;20.978;2022-08-02T06:08:52;25.00;79.70
23532;DHT22;11943;52.270;20.978;2022-08-02T06:11:20;25.10;81.00
23532;DHT22;11943;52.270;20.978;2022-08-02T06:13:46;24.90;82.10
23532;DHT22;11943;52.270;20.978;2022-08-02T06:16:11;25.10;79.70
23532;DHT22;11943;52.270;20.978;2022-08-02T06:18:37;25.00;80.60
23532;DHT22;11943;52.270;20.978;2022-08-02T06:21:03;25.10;79.60
23532;DHT22;11943;52.270;20.978;2022-08-02T06:23:29;25.20;79.10
23532;DHT22;11943;52.270;20.978;2022-08-02T06:25:56;25.10;76.70
23532;DHT22;11943;52.270;20.978;2022-08-02T06:28:22;25.20;79.70
23532;DHT22;11943;52.270;20.978;2022-08-02T06:30:48;25.20;76.90
23532;DHT22;11943;52.270;20.978;2022-08-02T06:33:14;24.90;77.30
23532;DHT22;11943;52.270;20.978;2022-08-02T06:35:44;24.90;79.80
23532;DHT22;11943;52.270;20.978;2022-08-02T06:38:12;24.80;77.70
23532;DHT22;11943;52.270;20.978;2022-08-02T06:40:54;24.80;80.50
23532;DHT22;11943;52.270;20.978;2022-08-02T06:45:46;24.30;82.20
23532;DHT22;11943;52.270;20.978;2022-08-02T06:48:11;24.20;79.30
23532;DHT22;11943;52.270;20.978;2022-08-02T06:50:37;24.30;78.60
23532;DHT22;11943;52.270;20.978;2022-08-02T06:53:04;24.20;78.60
23532;DHT22;11943;52.270;20.978;2022-08-02T06:55:29;24.10;81.80
23532;DHT22;11943;52.270;20.978;2022-08-02T06:57:56;24.30;76.80
23532;DHT22;11943;52.270;20.978;2022-08-02T07:00:22;24.50;78.00
23532;DHT22;11943;52.270;20.978;2022-08-02T07:02:48;24.50;76.90
23532;DHT22;11943;52.270;20.978;2022-08-02T07:05:13;24.40;77.40
23532;DHT22;11943;52.270;20.978;2022-08-02T07:07:38;24.40;77.90
23532;DHT22;11943;52.270;20.978;2022-08-02T07:10:04;24.60;78.00
23532;DHT22;11943;52.270;20.978;2022-08-02T07:12:30;24.70;74.00
23532;DHT22;11943;52.270;20.978;2022-08-02T07:14:57;24.70;76.60
23532;DHT22;11943;52.270;20.978;2022-08-02T07:17:22;24.80;75.30
23532;DHT22;11943;52.270;20.978;2022-08-02T07:19:48;24.80;76.80
23532;DHT22;11943;52.270;20.978;2022-08-02T07:22:13;24.90;73.60
23532;DHT22;11943;52.270;20.978;2022-08-02T07:24:39;24.80;70.20
23532;DHT22;11943;52.270;20.978;2022-08-02T07:27:05;24.70;71.40
23532;DHT22;11943;52.270;20.978;2022-08-02T07:29:30;24.70;71.40
23532;DHT22;11943;52.270;20.978;2022-08-02T07:31:56;25.00;74.00
23532;DHT22;11943;52.270;20.978;2022-08-02T07:34:21;25.00;70.10
23532;DHT22;11943;52.270;20.978;2022-08-02T07:36:46;24.80;68.50
23532;DHT22;11943;52.270;20.978;2022-08-02T07:39:12;25.00;72.20
23532;DHT22;11943;52.270;20.978;2022-08-02T07:41:38;25.20;69.10
23532;DHT22;11943;52.270;20.978;2022-08-02T07:44:03;25.50;68.00
23532;DHT22;11943;52.270;20.978;2022-08-02T07:46:29;25.50;67.80
23532;DHT22;11943;52.270;20.978;2022-08-02T07:48:54;25.60;67.70
23532;DHT22;11943;52.270;20.978;2022-08-02T07:51:20;25.80;68.80
23532;DHT22;11943;52.270;20.978;2022-08-02T07:53:46;26.00;65.60
23532;DHT22;11943;52.270;20.978;2022-08-02T07:56:11;25.90;66.40
23532;DHT22;11943;52.270;20.978;2022-08-02T07:58:37;26.00;66.80
23532;DHT22;11943;52.270;20.978;2022-08-02T08:01:02;25.80;66.30
23532;DHT22;11943;52.270;20.978;2022-08-02T08:03:28;25.90;65.30
23532;DHT22;11943;52.270;20.978;2022-08-02T08:05:54;26.10;68.00
23532;DHT22;11943;52.270;20.978;2022-08-02T08:08:19;26.20;66.80
23532;DHT22;11943;52.270;20.978;2022-08-02T08:10:45;26.30;68.40
23532;DHT22;11943;52.270;20.978;2022-08-02T08:13:11;26.30;66.50
23532;DHT22;11943;52.270;20.978;2022-08-02T08:15:36;26.30;67.50
23532;DHT22;11943;52.270;20.978;2022-08-02T08:18:02;26.50;64.30
23532;DHT22;11943;52.270;20.978;2022-08-02T08:20:27;26.70;63.80
23532;DHT22;11943;52.270;20.978;2022-08-02T08:22:53;26.60;63.70
23532;DHT22;11943;52.270;20.978;2022-08-02T08:25:18;26.70;66.00
23532;DHT22;11943;52.270;20.978;2022-08-02T08:27:47;26.80;63.30
23532;DHT22;11943;52.270;20.978;2022-08-02T08:30:13;26.50;61.60
23532;DHT22;11943;52.270;20.978;2022-08-02T08:32:38;26.70;63.60
23532;DHT22;11943;52.270;20.978;2022-08-02T08:35:04;26.60;63.50
23532;DHT22;11943;52.270;20.978;2022-08-02T08:37:34;26.90;61.70
23532;DHT22;11943;52.270;20.978;2022-08-02T08:40:00;27.00;63.40
23532;DHT22;11943;52.270;20.978;2022-08-02T08:42:26;26.80;62.90
23532;DHT22;11943;52.270;20.978;2022-08-02T08:44:52;26.50;64.80
23532;DHT22;11943;52.270;20.978;2022-08-02T08:47:18;26.70;64.30
23532;DHT22;11943;52.270;20.978;2022-08-02T08:49:45;26.70;65.60
23532;DHT22;11943;52.270;20.978;2022-08-02T08:52:12;26.90;63.60
23532;DHT22;11943;52.270;20.978;2022-08-02T08:54:38;26.90;60.60
23532;DHT22;11943;52.270;20.978;2022-08-02T08:57:05;26.90;63.10
23532;DHT22;11943;52.270;20.978;2022-08-02T08:59:31;26.80;62.00
23532;DHT22;11943;52.270;20.978;2022-08-02T09:01:56;26.80;64.90
23532;DHT22;11943;52.270;20.978;2022-08-02T09:04:22;27.10;61.00
23532;DHT22;11943;52.270;20.978;2022-08-02T09:06:47;27.20;62.90
23532;DHT22;11943;52.270;20.978;2022-08-02T09:09:13;27.40;62.40
23532;DHT22;11943;52.270;20.978;2022-08-02T09:11:38;27.30;61.50
23532;DHT22;11943;52.270;20.978;2022-08-02T09:14:04;27.40;60.60
23532;DHT22;11943;52.270;20.978;2022-08-02T09:18:55;27.60;60.00
23532;DHT22;11943;52.270;20.978;2022-08-02T09:21:20;27.60;60.20
23532;DHT22;11943;52.270;20.978;2022-08-02T09:23:46;27.80;61.90
23532;DHT22;11943;52.270;20.978;2022-08-02T09:26:19;27.50;59.40
23532;DHT22;11943;52.270;20.978;2022-08-02T09:28:46;27.50;60.30
23532;DHT22;11943;52.270;20.978;2022-08-02T09:31:13;27.30;59.60
23532;DHT22;11943;52.270;20.978;2022-08-02T09:33:41;27.00;59.20
23532;DHT22;11943;52.270;20.978;2022-08-02T09:36:07;26.90;59.50
23532;DHT22;11943;52.270;20.978;2022-08-02T09:38:33;27.30;61.20
23532;DHT22;11943;52.270;20.978;2022-08-02T09:41:00;27.60;60.70
23532;DHT22;11943;52.270;20.978;2022-08-02T09:43:36;27.80;61.40
23532;DHT22;11943;52.270;20.978;2022-08-02T09:46:11;28.20;60.40
23532;DHT22;11943;52.270;20.978;2022-08-02T09:48:58;28.10;61.80
23532;DHT22;11943;52.270;20.978;2022-08-02T09:51:30;28.30;59.00
23532;DHT22;11943;52.270;20.978;2022-08-02T09:54:00;28.10;60.30
23532;DHT22;11943;52.270;20.978;2022-08-02T09:56:26;28.30;59.00
23532;DHT22;11943;52.270;20.978;2022-08-02T09:58:52;28.10;58.00
23532;DHT22;11943;52.270;20.978;2022-08-02T10:01:19;28.40;58.30
23532;DHT22;11943;52.270;20.978;2022-08-02T10:03:58;28.20;60.10
23532;DHT22;11943;52.270;20.978;2022-08-02T10:06:24;28.10;60.00
23532;DHT22;11943;52.270;20.978;2022-08-02T10:08:50;28.50;60.90
23532;DHT22;11943;52.270;20.978;2022-08-02T10:11:18;28.70;58.00
23532;DHT22;11943;52.270;20.978;2022-08-02T10:13:43;28.30;58.20
23532;DHT22;11943;52.270;20.978;2022-08-02T10:16:09;27.90;60.00
23532;DHT22;11943;52.270;20.978;2022-08-02T10:18:34;27.40;63.70
23532;DHT22;11943;52.270;20.978;2022-08-02T10:21:00;27.00;65.60
23532;DHT22;11943;52.270;20.978;2022-08-02T10:23:26;26.70;64.00
23532;DHT22;11943;52.270;20.978;2022-08-02T10:25:54;26.60;63.50
23532;DHT22;11943;52.270;20.978;2022-08-02T10:28:22;27.10;65.50
23532;DHT22;11943;52.270;20.978;2022-08-02T10:30:50;27.50;65.40
23532;DHT22;11943;52.270;20.978;2022-08-02T10:33:18;27.50;64.70
23532;DHT22;11943;52.270;20.978;2022-08-02T10:35:43;27.90;64.50
23532;DHT22;11943;52.270;20.978;2022-08-02T10:38:10;28.00;61.90
23532;DHT22;11943;52.270;20.978;2022-08-02T10:40:46;28.10;62.60
23532;DHT22;11943;52.270;20.978;2022-08-02T10:43:11;28.10;61.70
23532;DHT22;11943;52.270;20.978;2022-08-02T10:45:38;28.10;60.10
23532;DHT22;11943;52.270;20.978;2022-08-02T10:48:10;28.40;59.40
23532;DHT22;11943;52.270;20.978;2022-08-02T10:55:44;28.50;61.60
23532;DHT22;11943;52.270;20.978;2022-08-02T10:58:16;28.60;60.30
23532;DHT22;11943;52.270;20.978;2022-08-02T11:00:43;28.40;59.60
23532;DHT22;11943;52.270;20.978;2022-08-02T11:06:05;28.10;62.10
23532;DHT22;11943;52.270;20.978;2022-08-02T11:08:31;27.80;60.90
23532;DHT22;11943;52.270;20.978;2022-08-02T11:11:16;27.60;61.50
23532;DHT22;11943;52.270;20.978;2022-08-02T11:14:24;27.40;63.70
23532;DHT22;11943;52.270;20.978;2022-08-02T11:17:15;27.00;64.20
23532;DHT22;11943;52.270;20.978;2022-08-02T11:19:24;27.20;63.60
23532;DHT22;11943;52.270;20.978;2022-08-02T11:22:07;27.40;63.40
23532;DHT22;11943;52.270;20.978;2022-08-02T11:24:35;27.60;62.80
23532;DHT22;11943;52.270;20.978;2022-08-02T11:27:02;27.50;63.20
23532;DHT22;11943;52.270;20.978;2022-08-02T11:29:38;27.70;63.70
23532;DHT22;11943;52.270;20.978;2022-08-02T11:32:07;27.50;61.20
23532;DHT22;11943;52.270;20.978;2022-08-02T11:34:33;27.60;62.50
23532;DHT22;11943;52.270;20.978;2022-08-02T11:36:59;27.90;62.30
23532;DHT22;11943;52.270;20.978;2022-08-02T11:39:24;28.40;62.50
23532;DHT22;11943;52.270;20.978;2022-08-02T11:44:16;28.50;59.70
23532;DHT22;11943;52.270;20.978;2022-08-02T11:46:41;28.20;60.20
23532;DHT22;11943;52.270;20.978;2022-08-02T11:49:11;28.00;62.80
23532;DHT22;11943;52.270;20.978;2022-08-02T11:51:37;27.90;63.20
23532;DHT22;11943;52.270;20.978;2022-08-02T11:54:03;27.60;61.80
23532;DHT22;11943;52.270;20.978;2022-08-02T11:56:30;27.30;63.10
23532;DHT22;11943;52.270;20.978;2022-08-02T11:58:59;27.10;65.50
23532;DHT22;11943;52.270;20.978;2022-08-02T12:01:25;26.80;66.80
23532;DHT22;11943;52.270;20.978;2022-08-02T12:03:50;26.60;66.90
23532;DHT22;11943;52.270;20.978;2022-08-02T12:06:16;26.60;66.80
23532;DHT22;11943;52.270;20.978;2022-08-02T12:08:42;26.60;66.70
23532;DHT22;11943;52.270;20.978;2022-08-02T12:11:08;26.70;67.30
23532;DHT22;11943;52.270;20.978;2022-08-02T12:13:43;26.70;66.70
23532;DHT22;11943;52.270;20.978;2022-08-02T12:16:13;26.90;67.10
23532;DHT22;11943;52.270;20.978;2022-08-02T12:18:57;27.10;64.00
23532;DHT22;11943;52.270;20.978;2022-08-02T12:21:42;27.40;63.90
23532;DHT22;11943;52.270;20.978;2022-08-02T12:24:07;27.70;62.50
23532;DHT22;11943;52.270;20.978;2022-08-02T12:29:07;27.90;64.10
23532;DHT22;11943;52.270;20.978;2022-08-02T12:31:40;28.00;62.50
23532;DHT22;11943;52.270;20.978;2022-08-02T12:34:12;28.30;60.30
23532;DHT22;11943;52.270;20.978;2022-08-02T12:39:32;28.30;61.60
23532;DHT22;11943;52.270;20.978;2022-08-02T12:41:58;28.50;59.60
23532;DHT22;11943;52.270;20.978;2022-08-02T12:44:23;28.40;60.80
23532;DHT22;11943;52.270;20.978;2022-08-02T12:46:58;28.20;61.00
23532;DHT22;11943;52.270;20.978;2022-08-02T12:49:24;28.00;61.70
23532;DHT22;11943;52.270;20.978;2022-08-02T12:51:50;27.90;61.90
23532;DHT22;11943;52.270;20.978;2022-08-02T12:54:17;27.90;65.70
23532;DHT22;11943;52.270;20.978;2022-08-02T12:56:43;27.80;63.40
23532;DHT22;11943;52.270;20.978;2022-08-02T12:59:09;27.90;64.50
23532;DHT22;11943;52.270;20.978;2022-08-02T13:01:34;27.80;65.20
23532;DHT22;11943;52.270;20.978;2022-08-02T13:04:00;28.00;63.50
23532;DHT22;11943;52.270;20.978;2022-08-02T13:06:25;28.30;63.70
23532;DHT22;11943;52.270;20.978;2022-08-02T13:08:51;28.40;64.10
23532;DHT22;11943;52.270;20.978;2022-08-02T13:11:19;28.40;61.10
23532;DHT22;11943;52.270;20.978;2022-08-02T13:13:44;28.10;60.10
23532;DHT22;11943;52.270;20.978;2022-08-02T13:16:10;27.80;62.50
23532;DHT22;11943;52.270;20.978;2022-08-02T13:18:36;27.60;63.50
23532;DHT22;11943;52.270;20.978;2022-08-02T13:21:01;27.50;64.00
23532;DHT22;11943;52.270;20.978;2022-08-02T13:23:28;27.30;64.60
23532;DHT22;11943;52.270;20.978;2022-08-02T13:25:54;27.30;64.80
23532;DHT22;11943;52.270;20.978;2022-08-02T13:28:20;27.40;63.20
23532;DHT22;11943;52.270;20.978;2022-08-02T13:30:46;27.40;65.30
23532;DHT22;11943;52.270;20.978;2022-08-02T13:33:12;27.50;64.90
23532;DHT22;11943;52.270;20.978;2022-08-02T13:35:37;27.70;64.00
23532;DHT22;11943;52.270;20.978;2022-08-02T13:38:03;27.80;64.90
23532;DHT22;11943;52.270;20.978;2022-08-02T13:40:28;27.80;64.20
23532;DHT22;11943;52.270;20.978;2022-08-02T13:42:54;28.10;63.40
23532;DHT22;11943;52.270;20.978;2022-08-02T13:45:19;28.40;61.60
23532;DHT22;11943;52.270;20.978;2022-08-02T13:47:45;28.00;61.20
23532;DHT22;11943;52.270;20.978;2022-08-02T13:50:11;27.70;61.40
23532;DHT22;11943;52.270;20.978;2022-08-02T13:52:36;27.40;61.30
23532;DHT22;11943;52.270;20.978;2022-08-02T13:55:02;27.30;62.20
23532;DHT22;11943;52.270;20.978;2022-08-02T13:57:28;27.30;63.90
23532;DHT22;11943;52.270;20.978;2022-08-02T13:59:53;27.20;64.20
23532;DHT22;11943;52.270;20.978;2022-08-02T14:02:19;26.90;65.00
23532;DHT22;11943;52.270;20.978;2022-08-02T14:04:44;26.60;66.80
23532;DHT22;11943;52.270;20.978;2022-08-02T14:07:10;26.40;67.60
23532;DHT22;11943;52.270;20.978;2022-08-02T14:09:35;26.30;69.20
23532;DHT22;11943;52.270;20.978;2022-08-02T14:12:02;26.20;69.00
23532;DHT22;11943;52.270;20.978;2022-08-02T14:14:27;26.20;69.00
23532;DHT22;11943;52.270;20.978;2022-08-02T14:16:53;26.10;70.50
23532;DHT22;11943;52.270;20.978;2022-08-02T14:19:18;26.00;68.10
23532;DHT22;11943;52.270;20.978;2022-08-02T14:21:49;25.90;69.00
23532;DHT22;11943;52.270;20.978;2022-08-02T14:24:15;25.80;70.00
23532;DHT22;11943;52.270;20.978;2022-08-02T14:26:42;25.80;68.90
23532;DHT22;11943;52.270;20.978;2022-08-02T14:29:07;25.80;68.80
23532;DHT22;11943;52.270;20.978;2022-08-02T14:31:33;25.90;69.80
23532;DHT22;11943;52.270;20.978;2022-08-02T14:33:58;26.00;68.70
23532;DHT22;11943;52.270;20.978;2022-08-02T14:36:24;26.20;69.10
23532;DHT22;11943;52.270;20.978;2022-08-02T14:38:49;26.40;69.00
23532;DHT22;11943;52.270;20.978;2022-08-02T14:41:15;26.50;68.00
23532;DHT22;11943;52.270;20.978;2022-08-02T14:43:40;26.90;67.30
23532;DHT22;11943;52.270;20.978;2022-08-02T14:46:25;27.20;69.60
23532;DHT22;11943;52.270;20.978;2022-08-02T14:48:50;27.00;68.20
23532;DHT22;11943;52.270;20.978;2022-08-02T14:51:16;26.90;68.30
23532;DHT22;11943;52.270;20.978;2022-08-02T14:53:41;27.00;66.60
23532;DHT22;11943;52.270;20.978;2022-08-02T14:56:07;27.20;66.50
23532;DHT22;11943;52.270;20.978;2022-08-02T14:58:32;27.00;68.50
23532;DHT22;11943;52.270;20.978;2022-08-02T15:00:58;26.80;66.80
23532;DHT22;11943;52.270;20.978;2022-08-02T15:03:23;26.80;67.50
23532;DHT22;11943;52.270;20.978;2022-08-02T15:05:48;26.60;69.30
23532;DHT22;11943;52.270;20.978;2022-08-02T15:08:14;26.60;68.70
23532;DHT22;11943;52.270;20.978;2022-08-02T15:10:39;26.70;70.10
23532;DHT22;11943;52.270;20.978;2022-08-02T15:13:05;26.70;69.70
23532;DHT22;11943;52.270;20.978;2022-08-02T15:15:31;26.70;67.90
23532;DHT22;11943;52.270;20.978;2022-08-02T15:17:56;26.70;68.30
23532;DHT22;11943;52.270;20.978;2022-08-02T15:20:22;26.60;69.00
23532;DHT22;11943;52.270;20.978;2022-08-02T15:22:47;26.50;67.10
23532;DHT22;11943;52.270;20.978;2022-08-02T15:25:12;26.40;72.30
23532;DHT22;11943;52.270;20.978;2022-08-02T15:27:38;26.30;73.20
23532;DHT22;11943;52.270;20.978;2022-08-02T15:30:04;26.40;72.50
23532;DHT22;11943;52.270;20.978;2022-08-02T15:32:29;26.80;68.60
23532;DHT22;11943;52.270;20.978;2022-08-02T15:34:55;26.70;70.90
23532;DHT22;11943;52.270;20.978;2022-08-02T15:37:20;26.80;67.70
23532;DHT22;11943;52.270;20.978;2022-08-02T15:39:46;26.90;64.80
23532;DHT22;11943;52.270;20.978;2022-08-02T15:42:11;26.90;65.70
23532;DHT22;11943;52.270;20.978;2022-08-02T15:44:37;26.80;67.20
23532;DHT22;11943;52.270;20.978;2022-08-02T15:47:05;26.80;68.70